Terminal Aerodrome Forecast
Issued by NWS Amarillo, TX

Current Version | Previous Version | Text Only | Print | Product List | Glossary Off
Versions: 1 2 3 4 5 6 7 8 9 10 11 12 13 14 15

000
FTUS44 KAMA 221724
TAFAMA
TAF
KAMA 221724Z 2218/2318 19012KT P6SM SCT080
     FM222100 18011KT P6SM VCSH SCT060 BKN100
     FM230600 22009KT P6SM SCT080 BKN250
     FM230900 35007KT P6SM SCT080 BKN250=

USA.gov is the U.S. government's official web portal to all federal, state and local government web resources and services.